createdAt,value
2019-04-11T00:11:00.319Z,14.58
2019-04-11T00:13:33.417Z,14.70
2019-04-11T00:16:15.172Z,14.87
2019-04-11T00:18:45.713Z,14.65
2019-04-11T00:21:26.851Z,14.38
2019-04-11T00:23:58.667Z,12.30
2019-04-11T00:26:33.947Z,13.08
2019-04-11T00:29:05.949Z,13.60
2019-04-11T00:31:41.151Z,13.70
2019-04-11T00:34:12.964Z,14.63
2019-04-11T00:36:48.531Z,14.35
2019-04-11T00:39:19.498Z,15.80
2019-04-11T00:55:24.096Z,22.05
2019-04-11T01:08:33.078Z,22.80
2019-04-11T01:11:05.706Z,25.65
2019-04-11T01:25:04.484Z,29.30
2019-04-11T01:27:36.147Z,29.37
2019-04-11T01:45:23.818Z,34.43
2019-04-11T01:47:59.462Z,37.13
2019-04-11T02:01:50.412Z,37.55
2019-04-11T02:04:23.769Z,37.25
2019-04-11T02:18:01.324Z,36.17
2019-04-11T02:20:33.345Z,36.83
2019-04-11T02:23:13.179Z,34.23
2019-04-11T02:26:03.015Z,36.60
2019-04-11T02:28:39.036Z,34.20
2019-04-11T02:31:11.702Z,31.77
2019-04-11T02:33:51.162Z,35.95
2019-04-11T02:36:22.602Z,35.23
2019-04-11T02:39:06.260Z,33.10
2019-04-11T02:41:35.890Z,34.33
2019-04-11T02:55:13.015Z,32.13
2019-04-11T02:57:43.185Z,32.63
2019-04-11T03:00:15.903Z,33.18
2019-04-11T03:02:53.515Z,34.70
2019-04-11T03:05:26.757Z,33.90
2019-04-11T03:08:07.960Z,33.88
2019-04-11T03:10:37.780Z,36.03
2019-04-11T03:13:16.764Z,35.98
2019-04-11T03:15:59.504Z,34.75
2019-04-11T03:18:45.818Z,33.30
2019-04-11T03:21:04.593Z,34.00
2019-04-11T03:23:39.507Z,35.33
2019-04-11T03:26:12.370Z,31.95
2019-04-11T03:28:53.708Z,32.83
2019-04-11T03:32:04.958Z,30.12
2019-04-11T03:34:51.780Z,28.75
2019-04-11T03:37:15.240Z,27.80
2019-04-11T03:39:39.474Z,28.15
2019-04-11T03:42:07.919Z,25.95
2019-04-11T04:06:38.998Z,22.62
2019-04-11T04:09:10.891Z,21.90
2019-04-11T04:11:51.265Z,21.57
2019-04-11T04:14:45.272Z,19.80
2019-04-11T04:28:00.872Z,21.62
2019-04-11T04:30:33.678Z,20.12
2019-04-11T04:44:31.614Z,25.17
2019-04-11T04:47:15.677Z,24.30
2019-04-11T04:49:43.681Z,24.12
2019-04-11T04:52:16.435Z,26.25
2019-04-11T04:54:59.426Z,31.23
2019-04-11T04:57:33.289Z,31.60
2019-04-11T05:00:11.824Z,26.05
2019-04-11T05:02:44.250Z,25.62
2019-04-11T05:20:09.192Z,24.63
2019-04-11T05:22:40.200Z,21.05
2019-04-11T05:25:12.609Z,19.40
2019-04-11T05:27:43.913Z,19.23
2019-04-11T05:30:19.220Z,18.73
2019-04-11T05:32:50.909Z,19.37
2019-04-11T05:46:35.284Z,15.72
2019-04-11T05:49:05.299Z,17.77
2019-04-11T05:51:45.730Z,18.10
2019-04-11T05:54:16.309Z,17.67
2019-04-11T06:07:58.599Z,18.98
2019-04-11T06:10:48.398Z,17.82
2019-04-11T06:24:39.193Z,19.95
2019-04-11T06:27:17.290Z,17.98
2019-04-11T06:30:05.502Z,17.50
2019-04-11T06:32:56.298Z,18.35
2019-04-11T06:35:48.429Z,19.00
2019-04-11T06:38:38.662Z,18.77
2019-04-11T06:52:12.823Z,20.70
2019-04-11T06:55:04.567Z,22.27
2019-04-11T06:57:43.876Z,23.00
2019-04-11T07:00:17.089Z,21.87
2019-04-11T07:17:16.855Z,23.75
2019-04-11T07:20:43.762Z,23.35
2019-04-11T07:23:33.042Z,22.73
2019-04-11T07:30:42.847Z,23.05
2019-04-11T07:33:20.184Z,24.25
2019-04-11T07:36:12.392Z,21.77
2019-04-11T07:38:52.403Z,22.30
2019-04-11T07:41:34.096Z,19.10
2019-04-11T07:55:02.631Z,15.48
2019-04-11T07:57:34.781Z,12.65
2019-04-11T08:11:13.489Z,12.98
2019-04-11T08:14:04.216Z,11.12
2019-04-11T08:20:33.295Z,11.60
2019-04-11T08:23:06.002Z,13.32
2019-04-11T08:25:45.538Z,10.50
2019-04-11T08:28:20.652Z,10.60
2019-04-11T08:31:05.826Z,8.45
2019-04-11T08:33:42.923Z,8.55
2019-04-11T08:36:17.715Z,9.95
2019-04-11T08:38:59.052Z,9.38
2019-04-11T08:41:35.757Z,8.63
2019-04-11T08:44:13.500Z,9.18
2019-04-11T08:46:46.863Z,10.63
2019-04-11T09:00:24.287Z,8.45
2019-04-11T09:02:57.536Z,7.78
2019-04-11T09:17:01.789Z,6.97
2019-04-11T09:19:45.206Z,7.42
2019-04-11T09:33:39.401Z,5.53
2019-04-11T09:36:30.309Z,7.17
2019-04-11T09:50:46.940Z,7.78
2019-04-11T09:53:20.695Z,5.33
2019-04-11T09:56:06.894Z,5.22
2019-04-11T09:58:38.124Z,5.58
2019-04-11T10:01:35.105Z,4.42
2019-04-11T10:04:06.937Z,5.37
2019-04-11T10:06:46.568Z,4.60
2019-04-11T10:09:19.724Z,5.10
2019-04-11T10:12:17.928Z,5.30
2019-04-11T10:14:50.313Z,4.28
2019-04-11T10:28:04.847Z,4.67
2019-04-11T10:30:44.119Z,7.97
2019-04-11T10:44:51.933Z,4.47
2019-04-11T10:47:25.030Z,6.42
2019-04-11T10:50:20.056Z,5.92
2019-04-11T10:52:53.117Z,5.62
2019-04-11T10:59:17.588Z,4.90
2019-04-11T11:01:50.819Z,5.17
2019-04-11T11:04:34.737Z,5.25
2019-04-11T11:07:10.203Z,5.28
2019-04-11T11:16:50.757Z,6.70
2019-04-11T11:19:50.133Z,8.03
2019-04-11T11:22:17.127Z,5.20
2019-04-11T11:25:11.639Z,7.83
2019-04-11T11:31:11.923Z,4.03
2019-04-11T11:33:44.929Z,3.85
2019-04-11T11:36:37.492Z,4.60
2019-04-11T11:39:15.155Z,5.05
2019-04-11T11:42:04.177Z,5.45
2019-04-11T11:44:37.126Z,4.17
2019-04-11T11:58:31.304Z,4.03
2019-04-11T12:01:08.950Z,3.70
2019-04-11T12:14:59.927Z,3.98
2019-04-11T12:17:49.255Z,4.92
2019-04-11T12:35:30.839Z,3.45
2019-04-11T12:38:03.191Z,4.60
2019-04-11T12:52:45.669Z,4.15
2019-04-11T12:55:18.239Z,4.90
2019-04-11T12:58:03.842Z,5.65
2019-04-11T13:00:43.367Z,3.05
2019-04-11T13:13:55.169Z,4.58
2019-04-11T13:16:28.927Z,5.28
2019-04-11T13:19:01.812Z,3.98
2019-04-11T13:21:47.634Z,5.60
2019-04-11T13:24:28.369Z,5.20
2019-04-11T13:27:13.461Z,5.28
2019-04-11T13:30:10.178Z,6.03
2019-04-11T13:32:42.753Z,3.50
2019-04-11T13:35:21.573Z,4.03
2019-04-11T13:37:57.545Z,3.95
2019-04-11T13:40:45.671Z,3.30
2019-04-11T13:43:20.533Z,3.60
2019-04-11T13:46:10.311Z,3.12
2019-04-11T13:48:48.840Z,3.65
2019-04-11T13:51:30.915Z,3.60
2019-04-11T13:54:38.750Z,3.15
2019-04-11T13:57:29.319Z,4.47
2019-04-11T14:11:31.532Z,3.95
2019-04-11T14:14:20.899Z,4.50
2019-04-11T14:28:16.577Z,4.15
2019-04-11T14:31:02.265Z,4.62
2019-04-11T14:33:45.188Z,4.30
2019-04-11T14:36:36.617Z,4.50
2019-04-11T14:39:15.661Z,4.35
2019-04-11T14:41:54.760Z,3.47
2019-04-11T14:55:58.023Z,5.03
2019-04-11T14:58:31.312Z,5.05
2019-04-11T15:08:01.376Z,4.75
2019-04-11T15:10:34.800Z,4.50
2019-04-11T15:23:40.894Z,4.25
2019-04-11T15:26:13.038Z,3.98
2019-04-11T15:28:57.138Z,4.80
2019-04-11T15:31:46.292Z,4.50
2019-04-11T15:58:47.157Z,7.47
2019-04-11T16:01:36.117Z,6.55
2019-04-11T16:04:23.540Z,7.08
2019-04-11T16:07:09.424Z,7.22
2019-04-11T16:09:42.756Z,8.05
2019-04-11T16:12:36.040Z,8.40
2019-04-11T16:15:14.704Z,9.60
2019-04-11T16:18:02.329Z,9.70
2019-04-11T16:20:33.281Z,11.10
2019-04-11T16:23:27.041Z,11.68
2019-04-11T16:25:58.691Z,11.73
2019-04-11T16:28:46.075Z,13.10
2019-04-11T16:31:18.997Z,13.22
2019-04-11T16:45:18.284Z,12.40
2019-04-11T16:47:51.055Z,12.90
2019-04-11T16:50:29.554Z,14.30
2019-04-11T16:53:01.552Z,12.65
2019-04-11T17:17:45.500Z,18.23
2019-04-11T17:20:16.745Z,19.00
2019-04-11T17:34:13.508Z,21.05
2019-04-11T17:36:44.637Z,26.33
2019-04-11T17:39:21.991Z,22.70
2019-04-11T17:41:52.612Z,23.32
2019-04-11T17:55:52.026Z,24.43
2019-04-11T17:58:26.980Z,25.90
2019-04-11T18:12:18.662Z,29.27
2019-04-11T18:14:49.954Z,30.30
2019-04-11T18:27:55.237Z,37.53
2019-04-11T18:30:26.425Z,36.48
2019-04-11T18:43:25.551Z,44.20
2019-04-11T18:45:56.392Z,50.92
2019-04-11T18:59:49.608Z,63.35
2019-04-11T19:02:20.861Z,61.48
2019-04-11T19:04:57.968Z,60.20
2019-04-11T19:07:28.684Z,57.08
2019-04-11T19:10:06.944Z,56.95
2019-04-11T19:12:37.417Z,58.20
2019-04-11T19:15:16.730Z,54.70
2019-04-11T19:17:48.026Z,53.25
2019-04-11T19:44:59.683Z,46.77
2019-04-11T19:47:30.257Z,44.15
2019-04-11T19:50:08.517Z,45.95
2019-04-11T19:52:45.831Z,48.40
2019-04-11T19:57:51.311Z,50.38
2019-04-11T20:07:02.636Z,48.10
2019-04-11T20:09:33.568Z,50.12
2019-04-11T20:12:10.448Z,47.67
2019-04-11T20:14:42.304Z,49.38
2019-04-11T20:17:19.859Z,48.75
2019-04-11T20:20:00.942Z,49.08
2019-04-11T20:33:55.998Z,46.37
2019-04-11T20:36:33.272Z,47.45
2019-04-11T20:39:20.112Z,45.67
2019-04-11T20:41:54.185Z,45.83
2019-04-11T20:55:32.696Z,40.43
2019-04-11T20:58:03.597Z,38.23
2019-04-11T21:12:01.194Z,41.70
2019-04-11T21:14:32.033Z,41.53
2019-04-11T21:17:10.169Z,39.92
2019-04-11T21:19:41.719Z,38.73
2019-04-11T21:22:18.455Z,39.05
2019-04-11T21:24:49.395Z,39.45
2019-04-11T21:27:28.962Z,41.73
2019-04-11T21:30:00.609Z,45.08
2019-04-11T21:44:05.856Z,49.33
2019-04-11T21:46:37.367Z,47.03
2019-04-11T21:49:13.034Z,50.10
2019-04-11T21:51:44.709Z,54.30
2019-04-11T21:54:23.368Z,52.20
2019-04-11T21:56:56.112Z,62.38
2019-04-11T22:10:52.967Z,63.55
2019-04-11T22:13:23.941Z,50.50
2019-04-11T22:26:30.834Z,39.92
2019-04-11T22:29:02.082Z,44.85
2019-04-11T22:31:39.105Z,46.58
2019-04-11T22:34:12.156Z,52.83
2019-04-11T22:48:08.664Z,51.90
2019-04-11T22:50:40.635Z,49.75
2019-04-11T23:04:33.835Z,43.08
2019-04-11T23:07:04.533Z,43.15
2019-04-11T23:09:41.754Z,43.40
2019-04-11T23:12:15.207Z,43.90
2019-04-11T23:14:51.839Z,45.10
2019-04-11T23:17:23.093Z,45.00
2019-04-11T23:20:00.658Z,42.43
2019-04-11T23:22:32.295Z,42.65
2019-04-11T23:36:15.292Z,44.03
2019-04-11T23:38:46.034Z,44.67
2019-04-11T23:51:56.426Z,46.58
2019-04-11T23:54:29.809Z,46.50
